sensor_id;sensor_type;location;lat;lon;timestamp;pressure;altitude;pressure_sealevel;temperature;humidity
77149;BME280;66122;47.130;16.844;2023-01-26T00:00:55;100497.22;;;1.32;100.00
77149;BME280;66122;47.130;16.844;2023-01-26T00:11:02;100485.97;;;1.21;100.00
77149;BME280;66122;47.130;16.844;2023-01-26T00:21:07;100480.75;;;1.18;100.00
77149;BME280;66122;47.130;16.844;2023-01-26T00:31:14;100477.25;;;1.25;100.00
77149;BME280;66122;47.130;16.844;2023-01-26T00:41:17;100471.22;;;1.11;100.00
77149;BME280;66122;47.130;16.844;2023-01-26T00:51:38;100457.25;;;1.21;100.00
77149;BME280;66122;47.130;16.844;2023-01-26T01:01:41;100454.66;;;1.16;100.00
77149;BME280;66122;47.130;16.844;2023-01-26T01:11:43;100452.13;;;1.06;100.00
77149;BME280;66122;47.130;16.844;2023-01-26T01:21:49;100440.78;;;1.10;100.00
77149;BME280;66122;47.130;16.844;2023-01-26T01:31:51;100439.03;;;1.12;100.00
77149;BME280;66122;47.130;16.844;2023-01-26T01:41:54;100436.47;;;1.06;100.00
77149;BME280;66122;47.130;16.844;2023-01-26T02:02:09;100411.22;;;1.08;100.00
77149;BME280;66122;47.130;16.844;2023-01-26T02:12:13;100399.09;;;1.01;100.00
77149;BME280;66122;47.130;16.844;2023-01-26T02:22:28;100391.25;;;1.01;100.00
77149;BME280;66122;47.130;16.844;2023-01-26T02:32:37;100371.19;;;1.13;100.00
77149;BME280;66122;47.130;16.844;2023-01-26T02:42:40;100353.00;;;1.00;100.00
77149;BME280;66122;47.130;16.844;2023-01-26T02:52:45;100337.34;;;0.98;100.00
77149;BME280;66122;47.130;16.844;2023-01-26T03:02:54;100325.22;;;0.93;100.00
77149;BME280;66122;47.130;16.844;2023-01-26T03:12:59;100323.38;;;1.04;100.00
77149;BME280;66122;47.130;16.844;2023-01-26T03:23:02;100311.25;;;0.98;100.00
77149;BME280;66122;47.130;16.844;2023-01-26T03:33:27;100293.91;;;0.90;100.00
77149;BME280;66122;47.130;16.844;2023-01-26T03:43:30;100283.44;;;0.96;100.00
77149;BME280;66122;47.130;16.844;2023-01-26T03:53:52;100276.47;;;0.95;100.00
77149;BME280;66122;47.130;16.844;2023-01-26T04:04:13;100262.59;;;0.93;100.00
77149;BME280;66122;47.130;16.844;2023-01-26T04:14:35;100248.59;;;1.04;100.00
77149;BME280;66122;47.130;16.844;2023-01-26T04:24:59;100244.25;;;1.02;100.00
77149;BME280;66122;47.130;16.844;2023-01-26T04:35:03;100242.44;;;1.10;100.00
77149;BME280;66122;47.130;16.844;2023-01-26T04:45:09;100232.94;;;1.03;100.00
77149;BME280;66122;47.130;16.844;2023-01-26T04:55:12;100226.94;;;0.92;100.00
77149;BME280;66122;47.130;16.844;2023-01-26T05:05:17;100223.41;;;0.97;100.00
77149;BME280;66122;47.130;16.844;2023-01-26T05:15:20;100222.56;;;0.97;100.00
77149;BME280;66122;47.130;16.844;2023-01-26T05:25:36;100229.50;;;1.01;100.00
77149;BME280;66122;47.130;16.844;2023-01-26T05:35:43;100233.00;;;0.97;100.00
77149;BME280;66122;47.130;16.844;2023-01-26T05:45:46;100235.59;;;1.00;100.00
77149;BME280;66122;47.130;16.844;2023-01-26T05:55:50;100229.50;;;0.95;100.00
77149;BME280;66122;47.130;16.844;2023-01-26T06:05:56;100225.13;;;1.01;100.00
77149;BME280;66122;47.130;16.844;2023-01-26T06:16:08;100230.31;;;1.01;100.00
77149;BME280;66122;47.130;16.844;2023-01-26T06:26:11;100225.16;;;0.98;100.00
77149;BME280;66122;47.130;16.844;2023-01-26T06:36:15;100219.88;;;1.07;100.00
77149;BME280;66122;47.130;16.844;2023-01-26T06:46:21;100200.75;;;1.02;100.00
77149;BME280;66122;47.130;16.844;2023-01-26T06:56:27;100214.59;;;1.15;100.00
77149;BME280;66122;47.130;16.844;2023-01-26T07:06:48;100210.25;;;1.14;100.00
77149;BME280;66122;47.130;16.844;2023-01-26T07:16:51;100217.16;;;1.18;100.00
77149;BME280;66122;47.130;16.844;2023-01-26T07:26:55;100211.06;;;1.16;100.00
77149;BME280;66122;47.130;16.844;2023-01-26T07:36:57;100217.09;;;1.26;100.00
77149;BME280;66122;47.130;16.844;2023-01-26T07:47:00;100204.88;;;1.29;100.00
77149;BME280;66122;47.130;16.844;2023-01-26T07:57:03;100204.09;;;1.18;100.00
77149;BME280;66122;47.130;16.844;2023-01-26T08:07:08;100215.28;;;1.34;100.00
77149;BME280;66122;47.130;16.844;2023-01-26T08:17:12;100200.50;;;1.33;100.00
77149;BME280;66122;47.130;16.844;2023-01-26T08:27:15;100209.91;;;1.47;100.00
77149;BME280;66122;47.130;16.844;2023-01-26T08:37:18;100217.63;;;1.60;100.00
77149;BME280;66122;47.130;16.844;2023-01-26T08:47:21;100214.25;;;1.50;100.00
77149;BME280;66122;47.130;16.844;2023-01-26T08:57:23;100200.41;;;1.42;100.00
77149;BME280;66122;47.130;16.844;2023-01-26T09:07:26;100204.69;;;1.47;100.00
77149;BME280;66122;47.130;16.844;2023-01-26T09:17:29;100214.97;;;1.66;100.00
77149;BME280;66122;47.130;16.844;2023-01-26T09:27:32;100208.97;;;1.54;100.00
77149;BME280;66122;47.130;16.844;2023-01-26T09:37:35;100204.53;;;1.63;100.00
77149;BME280;66122;47.130;16.844;2023-01-26T09:58:05;100186.09;;;1.79;100.00
77149;BME280;66122;47.130;16.844;2023-01-26T10:08:14;100163.19;;;1.98;97.29
77149;BME280;66122;47.130;16.844;2023-01-26T10:18:25;100157.03;;;2.02;98.60
77149;BME280;66122;47.130;16.844;2023-01-26T10:28:32;100137.75;;;2.11;99.50
77149;BME280;66122;47.130;16.844;2023-01-26T10:48:50;100118.50;;;2.16;100.00
77149;BME280;66122;47.130;16.844;2023-01-26T10:58:55;100102.78;;;2.21;96.76
77149;BME280;66122;47.130;16.844;2023-01-26T11:09:16;100099.22;;;2.23;98.87
77149;BME280;66122;47.130;16.844;2023-01-26T11:19:42;100084.34;;;2.28;96.93
77149;BME280;66122;47.130;16.844;2023-01-26T11:40:23;100055.50;;;2.34;96.67
77149;BME280;66122;47.130;16.844;2023-01-26T12:00:39;100024.00;;;2.41;95.80
77149;BME280;66122;47.130;16.844;2023-01-26T12:20:55;100002.47;;;2.26;95.73
77149;BME280;66122;47.130;16.844;2023-01-26T12:31:17;99991.78;;;2.39;96.21
77149;BME280;66122;47.130;16.844;2023-01-26T12:41:57;99978.81;;;2.32;95.83
77149;BME280;66122;47.130;16.844;2023-01-26T12:52:09;99971.88;;;2.31;95.50
77149;BME280;66122;47.130;16.844;2023-01-26T13:02:30;99970.13;;;2.32;94.93
77149;BME280;66122;47.130;16.844;2023-01-26T13:23:38;99949.28;;;2.27;94.72
77149;BME280;66122;47.130;16.844;2023-01-26T13:33:41;99951.88;;;2.29;96.82
77149;BME280;66122;47.130;16.844;2023-01-26T13:43:47;99951.91;;;2.27;97.44
77149;BME280;66122;47.130;16.844;2023-01-26T13:54:11;99959.78;;;2.26;97.54
77149;BME280;66122;47.130;16.844;2023-01-26T14:14:25;99962.81;;;2.02;95.10
77149;BME280;66122;47.130;16.844;2023-01-26T14:24:36;99969.97;;;1.87;95.47
77149;BME280;66122;47.130;16.844;2023-01-26T14:34:53;99967.34;;;1.89;95.45
77149;BME280;66122;47.130;16.844;2023-01-26T14:44:57;99967.53;;;1.77;97.28
77149;BME280;66122;47.130;16.844;2023-01-26T14:55:26;99969.41;;;1.69;96.49
77149;BME280;66122;47.130;16.844;2023-01-26T15:05:34;99959.00;;;1.66;98.07
77149;BME280;66122;47.130;16.844;2023-01-26T15:15:58;99965.88;;;1.73;97.97
77149;BME280;66122;47.130;16.844;2023-01-26T15:26:46;99958.94;;;1.69;97.83
77149;BME280;66122;47.130;16.844;2023-01-26T15:36:49;99970.47;;;1.55;99.69
77149;BME280;66122;47.130;16.844;2023-01-26T15:46:52;99961.78;;;1.53;100.00
77149;BME280;66122;47.130;16.844;2023-01-26T15:56:56;99957.41;;;1.55;100.00
77149;BME280;66122;47.130;16.844;2023-01-26T16:06:59;99958.47;;;1.42;100.00
77149;BME280;66122;47.130;16.844;2023-01-26T16:17:10;99972.50;;;1.34;100.00
77149;BME280;66122;47.130;16.844;2023-01-26T16:27:14;99980.41;;;1.29;100.00
77149;BME280;66122;47.130;16.844;2023-01-26T16:37:17;99976.09;;;1.27;100.00
77149;BME280;66122;47.130;16.844;2023-01-26T16:47:20;99977.91;;;1.22;100.00
77149;BME280;66122;47.130;16.844;2023-01-26T16:57:22;99978.88;;;1.13;100.00
77149;BME280;66122;47.130;16.844;2023-01-26T17:07:25;99964.97;;;1.09;100.00
77149;BME280;66122;47.130;16.844;2023-01-26T17:17:28;99965.81;;;1.13;100.00
77149;BME280;66122;47.130;16.844;2023-01-26T17:27:31;99977.06;;;1.18;100.00
77149;BME280;66122;47.130;16.844;2023-01-26T17:37:34;99970.09;;;1.17;100.00
77149;BME280;66122;47.130;16.844;2023-01-26T17:47:37;99971.94;;;1.09;100.00
77149;BME280;66122;47.130;16.844;2023-01-26T17:57:40;99978.13;;;1.02;100.00
77149;BME280;66122;47.130;16.844;2023-01-26T18:07:43;99979.94;;;0.97;100.00
77149;BME280;66122;47.130;16.844;2023-01-26T18:17:46;99977.31;;;0.97;100.00
77149;BME280;66122;47.130;16.844;2023-01-26T18:27:49;99979.91;;;1.00;100.00
77149;BME280;66122;47.130;16.844;2023-01-26T18:37:52;99986.03;;;0.96;100.00
77149;BME280;66122;47.130;16.844;2023-01-26T18:47:57;99977.31;;;0.97;100.00
77149;BME280;66122;47.130;16.844;2023-01-26T18:57:59;99982.63;;;0.91;100.00
77149;BME280;66122;47.130;16.844;2023-01-26T19:08:02;99956.63;;;0.82;100.00
77149;BME280;66122;47.130;16.844;2023-01-26T19:18:13;99954.88;;;0.84;100.00
77149;BME280;66122;47.130;16.844;2023-01-26T19:28:16;99951.41;;;0.80;100.00
77149;BME280;66122;47.130;16.844;2023-01-26T19:38:19;99951.47;;;0.78;100.00
77149;BME280;66122;47.130;16.844;2023-01-26T19:48:26;99953.22;;;0.76;100.00
77149;BME280;66122;47.130;16.844;2023-01-26T19:58:30;99945.38;;;0.78;100.00
77149;BME280;66122;47.130;16.844;2023-01-26T20:08:33;99953.22;;;0.76;100.00
77149;BME280;66122;47.130;16.844;2023-01-26T20:18:36;99948.06;;;0.70;100.00
77149;BME280;66122;47.130;16.844;2023-01-26T20:28:39;99956.78;;;0.69;100.00
77149;BME280;66122;47.130;16.844;2023-01-26T20:38:43;99947.22;;;0.65;100.00
77149;BME280;66122;47.130;16.844;2023-01-26T20:48:46;99948.16;;;0.64;100.00
77149;BME280;66122;47.130;16.844;2023-01-26T20:58:51;99951.63;;;0.63;100.00
77149;BME280;66122;47.130;16.844;2023-01-26T21:08:57;99936.00;;;0.62;100.00
77149;BME280;66122;47.130;16.844;2023-01-26T21:19:00;99938.66;;;0.56;100.00
77149;BME280;66122;47.130;16.844;2023-01-26T21:29:03;99936.97;;;0.52;100.00
77149;BME280;66122;47.130;16.844;2023-01-26T21:39:11;99929.19;;;0.49;100.00
77149;BME280;66122;47.130;16.844;2023-01-26T21:49:15;99936.97;;;0.52;100.00
77149;BME280;66122;47.130;16.844;2023-01-26T21:59:18;99906.69;;;0.40;100.00
77149;BME280;66122;47.130;16.844;2023-01-26T22:09:21;99904.88;;;0.48;100.00
77149;BME280;66122;47.130;16.844;2023-01-26T22:19:25;99903.13;;;0.47;100.00
77149;BME280;66122;47.130;16.844;2023-01-26T22:29:28;99899.66;;;0.45;100.00
77149;BME280;66122;47.130;16.844;2023-01-26T22:39:30;99900.53;;;0.44;100.00
77149;BME280;66122;47.130;16.844;2023-01-26T22:49:33;99890.19;;;0.41;100.00
77149;BME280;66122;47.130;16.844;2023-01-26T22:59:35;99881.44;;;0.44;100.00
77149;BME280;66122;47.130;16.844;2023-01-26T23:09:38;99874.53;;;0.39;100.00
77149;BME280;66122;47.130;16.844;2023-01-26T23:19:41;99866.72;;;0.41;100.00
77149;BME280;66122;47.130;16.844;2023-01-26T23:29:44;99859.78;;;0.37;100.00
77149;BME280;66122;47.130;16.844;2023-01-26T23:39:46;99852.88;;;0.36;100.00
77149;BME280;66122;47.130;16.844;2023-01-26T23:49:48;99855.50;;;0.33;100.00
77149;BME280;66122;47.130;16.844;2023-01-26T23:59:51;99856.19;;;0.50;100.00
